sensor_id;sensor_type;location;lat;lon;timestamp;temperature;humidity
4451;DHT22;2238;50.180;9.230;2022-07-29T00:05:23;20.90;99.90
4451;DHT22;2238;50.180;9.230;2022-07-29T00:08:24;20.80;99.90
4451;DHT22;2238;50.180;9.230;2022-07-29T00:11:24;20.90;99.90
4451;DHT22;2238;50.180;9.230;2022-07-29T00:14:26;20.80;99.90
4451;DHT22;2238;50.180;9.230;2022-07-29T00:17:27;20.80;99.90
4451;DHT22;2238;50.180;9.230;2022-07-29T00:20:27;20.80;99.90
4451;DHT22;2238;50.180;9.230;2022-07-29T00:23:28;20.80;99.90
4451;DHT22;2238;50.180;9.230;2022-07-29T00:29:31;20.80;99.90
4451;DHT22;2238;50.180;9.230;2022-07-29T00:35:34;20.60;99.90
4451;DHT22;2238;50.180;9.230;2022-07-29T00:38:48;20.60;99.90
4451;DHT22;2238;50.180;9.230;2022-07-29T00:41:49;20.70;99.90
4451;DHT22;2238;50.180;9.230;2022-07-29T00:44:49;20.80;99.90
4451;DHT22;2238;50.180;9.230;2022-07-29T00:53:53;20.50;99.90
4451;DHT22;2238;50.180;9.230;2022-07-29T00:56:53;20.50;99.90
4451;DHT22;2238;50.180;9.230;2022-07-29T01:02:56;20.40;99.90
4451;DHT22;2238;50.180;9.230;2022-07-29T01:05:57;20.50;99.90
4451;DHT22;2238;50.180;9.230;2022-07-29T01:08:58;20.40;99.90
4451;DHT22;2238;50.180;9.230;2022-07-29T01:11:59;20.40;99.90
4451;DHT22;2238;50.180;9.230;2022-07-29T01:15:02;20.50;99.90
4451;DHT22;2238;50.180;9.230;2022-07-29T01:21:23;20.60;99.90
4451;DHT22;2238;50.180;9.230;2022-07-29T01:24:39;20.50;99.90
4451;DHT22;2238;50.180;9.230;2022-07-29T01:31:42;20.80;99.90
4451;DHT22;2238;50.180;9.230;2022-07-29T01:37:50;20.70;99.90
4451;DHT22;2238;50.180;9.230;2022-07-29T01:41:02;20.50;99.90
4451;DHT22;2238;50.180;9.230;2022-07-29T01:44:13;20.60;99.90
4451;DHT22;2238;50.180;9.230;2022-07-29T01:47:20;20.30;99.90
4451;DHT22;2238;50.180;9.230;2022-07-29T01:50:25;19.90;99.90
4451;DHT22;2238;50.180;9.230;2022-07-29T01:53:33;19.90;99.90
4451;DHT22;2238;50.180;9.230;2022-07-29T01:56:36;20.30;99.90
4451;DHT22;2238;50.180;9.230;2022-07-29T02:02:41;19.20;99.90
4451;DHT22;2238;50.180;9.230;2022-07-29T02:05:44;19.30;99.90
4451;DHT22;2238;50.180;9.230;2022-07-29T02:08:47;19.70;99.90
4451;DHT22;2238;50.180;9.230;2022-07-29T02:11:50;19.80;99.90
4451;DHT22;2238;50.180;9.230;2022-07-29T02:14:54;19.70;99.90
4451;DHT22;2238;50.180;9.230;2022-07-29T02:18:00;22.60;99.90
4451;DHT22;2238;50.180;9.230;2022-07-29T02:21:03;19.50;99.90
4451;DHT22;2238;50.180;9.230;2022-07-29T02:24:04;19.70;99.90
4451;DHT22;2238;50.180;9.230;2022-07-29T02:30:07;19.10;99.90
4451;DHT22;2238;50.180;9.230;2022-07-29T02:33:10;19.20;99.90
4451;DHT22;2238;50.180;9.230;2022-07-29T02:36:12;19.20;99.90
4451;DHT22;2238;50.180;9.230;2022-07-29T02:39:14;19.10;99.90
4451;DHT22;2238;50.180;9.230;2022-07-29T02:42:16;18.90;99.90
4451;DHT22;2238;50.180;9.230;2022-07-29T02:48:22;19.00;99.90
4451;DHT22;2238;50.180;9.230;2022-07-29T02:51:29;19.10;99.90
4451;DHT22;2238;50.180;9.230;2022-07-29T02:54:53;19.20;99.90
4451;DHT22;2238;50.180;9.230;2022-07-29T03:01:03;19.00;99.90
4451;DHT22;2238;50.180;9.230;2022-07-29T03:04:05;18.80;99.90
4451;DHT22;2238;50.180;9.230;2022-07-29T03:07:06;18.80;99.90
4451;DHT22;2238;50.180;9.230;2022-07-29T03:10:08;18.80;99.90
4451;DHT22;2238;50.180;9.230;2022-07-29T03:13:10;18.90;99.90
4451;DHT22;2238;50.180;9.230;2022-07-29T03:25:18;18.60;99.90
4451;DHT22;2238;50.180;9.230;2022-07-29T03:28:20;18.70;99.90
4451;DHT22;2238;50.180;9.230;2022-07-29T03:37:23;18.70;99.90
4451;DHT22;2238;50.180;9.230;2022-07-29T03:40:34;18.70;99.90
4451;DHT22;2238;50.180;9.230;2022-07-29T03:43:38;18.60;99.90
4451;DHT22;2238;50.180;9.230;2022-07-29T03:46:41;18.60;99.90
4451;DHT22;2238;50.180;9.230;2022-07-29T03:49:44;18.60;99.90
4451;DHT22;2238;50.180;9.230;2022-07-29T03:52:47;18.60;99.90
4451;DHT22;2238;50.180;9.230;2022-07-29T03:55:52;18.70;99.90
4451;DHT22;2238;50.180;9.230;2022-07-29T03:58:54;18.60;99.90
4451;DHT22;2238;50.180;9.230;2022-07-29T04:07:58;18.70;99.90
4451;DHT22;2238;50.180;9.230;2022-07-29T04:10:59;18.80;99.90
4451;DHT22;2238;50.180;9.230;2022-07-29T04:17:02;18.80;99.90
4451;DHT22;2238;50.180;9.230;2022-07-29T04:20:04;18.80;99.90
4451;DHT22;2238;50.180;9.230;2022-07-29T04:29:09;18.80;99.90
4451;DHT22;2238;50.180;9.230;2022-07-29T04:41:15;19.10;99.90
4451;DHT22;2238;50.180;9.230;2022-07-29T04:44:15;19.10;99.90
4451;DHT22;2238;50.180;9.230;2022-07-29T04:47:16;19.20;99.90
4451;DHT22;2238;50.180;9.230;2022-07-29T04:50:16;19.20;99.90
4451;DHT22;2238;50.180;9.230;2022-07-29T04:53:17;19.30;99.90
4451;DHT22;2238;50.180;9.230;2022-07-29T04:56:18;19.20;99.90
4451;DHT22;2238;50.180;9.230;2022-07-29T04:59:19;19.30;99.90
4451;DHT22;2238;50.180;9.230;2022-07-29T05:02:20;19.40;99.90
4451;DHT22;2238;50.180;9.230;2022-07-29T05:05:20;19.20;99.90
4451;DHT22;2238;50.180;9.230;2022-07-29T05:23:29;19.10;99.90
4451;DHT22;2238;50.180;9.230;2022-07-29T05:38:35;19.10;99.90
4451;DHT22;2238;50.180;9.230;2022-07-29T05:44:38;19.10;99.90
4451;DHT22;2238;50.180;9.230;2022-07-29T05:47:39;19.10;99.90
4451;DHT22;2238;50.180;9.230;2022-07-29T05:50:39;19.10;99.90
4451;DHT22;2238;50.180;9.230;2022-07-29T05:53:40;19.00;99.90
4451;DHT22;2238;50.180;9.230;2022-07-29T05:59:41;19.20;99.90
4451;DHT22;2238;50.180;9.230;2022-07-29T06:11:45;20.10;99.90
4451;DHT22;2238;50.180;9.230;2022-07-29T06:20:48;20.10;99.90
4451;DHT22;2238;50.180;9.230;2022-07-29T06:23:49;20.10;99.90
4451;DHT22;2238;50.180;9.230;2022-07-29T06:26:49;19.90;99.90
4451;DHT22;2238;50.180;9.230;2022-07-29T06:29:50;20.00;99.90
4451;DHT22;2238;50.180;9.230;2022-07-29T06:32:50;19.80;99.90
4451;DHT22;2238;50.180;9.230;2022-07-29T06:41:53;19.90;99.90
4451;DHT22;2238;50.180;9.230;2022-07-29T06:53:57;20.10;99.90
4451;DHT22;2238;50.180;9.230;2022-07-29T06:56:57;20.10;99.90
4451;DHT22;2238;50.180;9.230;2022-07-29T07:09:02;20.20;99.90
4451;DHT22;2238;50.180;9.230;2022-07-29T07:12:03;20.30;99.90
4451;DHT22;2238;50.180;9.230;2022-07-29T07:15:04;20.30;99.90
4451;DHT22;2238;50.180;9.230;2022-07-29T07:18:06;20.60;99.90
4451;DHT22;2238;50.180;9.230;2022-07-29T07:21:06;21.40;99.90
4451;DHT22;2238;50.180;9.230;2022-07-29T07:27:08;21.60;99.90
4451;DHT22;2238;50.180;9.230;2022-07-29T07:30:09;21.70;99.90
4451;DHT22;2238;50.180;9.230;2022-07-29T07:33:10;21.60;99.90
4451;DHT22;2238;50.180;9.230;2022-07-29T07:39:12;22.40;99.90
4451;DHT22;2238;50.180;9.230;2022-07-29T07:45:13;23.30;99.90
4451;DHT22;2238;50.180;9.230;2022-07-29T07:48:14;23.50;99.90
4451;DHT22;2238;50.180;9.230;2022-07-29T07:51:14;27.50;99.90
4451;DHT22;2238;50.180;9.230;2022-07-29T07:54:15;24.20;99.90
4451;DHT22;2238;50.180;9.230;2022-07-29T07:57:16;24.40;99.90
4451;DHT22;2238;50.180;9.230;2022-07-29T08:00:17;24.70;99.90
4451;DHT22;2238;50.180;9.230;2022-07-29T08:03:18;24.30;99.90
4451;DHT22;2238;50.180;9.230;2022-07-29T08:06:18;24.80;99.90
4451;DHT22;2238;50.180;9.230;2022-07-29T08:12:20;24.80;99.90
4451;DHT22;2238;50.180;9.230;2022-07-29T08:15:20;24.70;99.90
4451;DHT22;2238;50.180;9.230;2022-07-29T08:18:21;24.30;99.90
4451;DHT22;2238;50.180;9.230;2022-07-29T08:21:22;24.80;99.90
4451;DHT22;2238;50.180;9.230;2022-07-29T08:24:23;24.70;99.90
4451;DHT22;2238;50.180;9.230;2022-07-29T08:27:42;25.20;99.90
4451;DHT22;2238;50.180;9.230;2022-07-29T08:30:42;25.10;99.90
4451;DHT22;2238;50.180;9.230;2022-07-29T08:36:44;25.10;99.90
4451;DHT22;2238;50.180;9.230;2022-07-29T08:39:44;25.50;99.90
4451;DHT22;2238;50.180;9.230;2022-07-29T08:45:49;25.50;99.90
4451;DHT22;2238;50.180;9.230;2022-07-29T08:48:50;25.60;99.90
4451;DHT22;2238;50.180;9.230;2022-07-29T08:51:51;25.40;99.90
4451;DHT22;2238;50.180;9.230;2022-07-29T08:54:53;25.90;99.90
4451;DHT22;2238;50.180;9.230;2022-07-29T08:57:54;26.10;99.90
4451;DHT22;2238;50.180;9.230;2022-07-29T09:00:55;26.20;99.90
4451;DHT22;2238;50.180;9.230;2022-07-29T09:03:58;26.30;99.90
4451;DHT22;2238;50.180;9.230;2022-07-29T09:07:00;26.40;99.90
4451;DHT22;2238;50.180;9.230;2022-07-29T09:10:04;26.60;99.90
4451;DHT22;2238;50.180;9.230;2022-07-29T09:13:05;26.40;99.90
4451;DHT22;2238;50.180;9.230;2022-07-29T09:16:06;26.80;99.90
4451;DHT22;2238;50.180;9.230;2022-07-29T09:19:29;26.40;99.90
4451;DHT22;2238;50.180;9.230;2022-07-29T09:22:30;26.70;99.90
4451;DHT22;2238;50.180;9.230;2022-07-29T09:25:36;26.90;99.90
4451;DHT22;2238;50.180;9.230;2022-07-29T09:28:41;26.80;99.90
4451;DHT22;2238;50.180;9.230;2022-07-29T09:31:45;26.10;99.90
4451;DHT22;2238;50.180;9.230;2022-07-29T09:34:45;26.10;99.90
4451;DHT22;2238;50.180;9.230;2022-07-29T09:37:46;27.50;99.90
4451;DHT22;2238;50.180;9.230;2022-07-29T09:40:56;27.40;99.90
4451;DHT22;2238;50.180;9.230;2022-07-29T09:43:58;27.40;99.90
4451;DHT22;2238;50.180;9.230;2022-07-29T09:47:02;27.30;99.90
4451;DHT22;2238;50.180;9.230;2022-07-29T09:50:06;27.30;99.90
4451;DHT22;2238;50.180;9.230;2022-07-29T09:53:07;27.10;99.90
4451;DHT22;2238;50.180;9.230;2022-07-29T09:56:09;27.10;99.90
4451;DHT22;2238;50.180;9.230;2022-07-29T09:59:10;27.20;99.90
4451;DHT22;2238;50.180;9.230;2022-07-29T10:02:12;28.00;99.90
4451;DHT22;2238;50.180;9.230;2022-07-29T10:05:25;27.60;99.90
4451;DHT22;2238;50.180;9.230;2022-07-29T10:08:26;27.00;99.90
4451;DHT22;2238;50.180;9.230;2022-07-29T10:11:27;26.90;99.90
4451;DHT22;2238;50.180;9.230;2022-07-29T10:36:19;26.90;99.90
4451;DHT22;2238;50.180;9.230;2022-07-29T10:42:29;27.40;99.90
4451;DHT22;2238;50.180;9.230;2022-07-29T10:45:31;27.90;99.90
4451;DHT22;2238;50.180;9.230;2022-07-29T10:48:32;28.20;99.90
4451;DHT22;2238;50.180;9.230;2022-07-29T10:54:56;28.30;99.90
4451;DHT22;2238;50.180;9.230;2022-07-29T10:58:28;28.10;99.90
4451;DHT22;2238;50.180;9.230;2022-07-29T11:01:29;27.70;99.90
4451;DHT22;2238;50.180;9.230;2022-07-29T11:14:57;28.30;99.90
4451;DHT22;2238;50.180;9.230;2022-07-29T11:21:00;28.20;99.90
4451;DHT22;2238;50.180;9.230;2022-07-29T11:24:18;28.30;99.90
4451;DHT22;2238;50.180;9.230;2022-07-29T11:27:21;28.20;99.90
4451;DHT22;2238;50.180;9.230;2022-07-29T11:30:49;28.10;99.90
4451;DHT22;2238;50.180;9.230;2022-07-29T11:33:50;28.40;99.90
4451;DHT22;2238;50.180;9.230;2022-07-29T11:43:07;29.10;99.90
4451;DHT22;2238;50.180;9.230;2022-07-29T11:46:08;28.80;99.90
4451;DHT22;2238;50.180;9.230;2022-07-29T11:49:09;28.80;99.90
4451;DHT22;2238;50.180;9.230;2022-07-29T11:52:10;28.60;99.90
4451;DHT22;2238;50.180;9.230;2022-07-29T11:58:14;29.00;99.90
4451;DHT22;2238;50.180;9.230;2022-07-29T12:01:21;29.40;99.90
4451;DHT22;2238;50.180;9.230;2022-07-29T12:04:24;28.90;99.90
4451;DHT22;2238;50.180;9.230;2022-07-29T12:07:27;29.80;99.90
4451;DHT22;2238;50.180;9.230;2022-07-29T12:10:30;29.30;99.90
4451;DHT22;2238;50.180;9.230;2022-07-29T12:13:38;28.90;99.90
4451;DHT22;2238;50.180;9.230;2022-07-29T12:16:39;28.80;99.90
4451;DHT22;2238;50.180;9.230;2022-07-29T12:19:43;29.40;99.90
4451;DHT22;2238;50.180;9.230;2022-07-29T12:22:43;29.90;99.90
4451;DHT22;2238;50.180;9.230;2022-07-29T12:25:44;29.80;99.90
4451;DHT22;2238;50.180;9.230;2022-07-29T12:28:45;29.80;99.90
4451;DHT22;2238;50.180;9.230;2022-07-29T12:31:46;29.40;99.90
4451;DHT22;2238;50.180;9.230;2022-07-29T12:34:47;29.80;99.90
4451;DHT22;2238;50.180;9.230;2022-07-29T12:37:48;29.90;99.90
4451;DHT22;2238;50.180;9.230;2022-07-29T12:40:52;29.90;99.90
4451;DHT22;2238;50.180;9.230;2022-07-29T12:43:54;29.60;99.90
4451;DHT22;2238;50.180;9.230;2022-07-29T12:47:04;29.70;99.90
4451;DHT22;2238;50.180;9.230;2022-07-29T12:50:13;29.80;99.90
4451;DHT22;2238;50.180;9.230;2022-07-29T12:53:15;29.70;99.90
4451;DHT22;2238;50.180;9.230;2022-07-29T12:56:16;29.70;99.90
4451;DHT22;2238;50.180;9.230;2022-07-29T12:59:19;29.70;99.90
4451;DHT22;2238;50.180;9.230;2022-07-29T13:02:23;30.20;99.90
4451;DHT22;2238;50.180;9.230;2022-07-29T13:05:24;29.70;99.90
4451;DHT22;2238;50.180;9.230;2022-07-29T13:08:38;29.60;99.90
4451;DHT22;2238;50.180;9.230;2022-07-29T13:11:42;30.20;99.90
4451;DHT22;2238;50.180;9.230;2022-07-29T13:14:48;29.90;99.90
4451;DHT22;2238;50.180;9.230;2022-07-29T13:17:50;29.80;99.90
4451;DHT22;2238;50.180;9.230;2022-07-29T13:20:50;30.20;99.90
4451;DHT22;2238;50.180;9.230;2022-07-29T13:23:51;30.30;99.90
4451;DHT22;2238;50.180;9.230;2022-07-29T13:26:51;30.60;99.90
4451;DHT22;2238;50.180;9.230;2022-07-29T13:29:53;30.50;99.90
4451;DHT22;2238;50.180;9.230;2022-07-29T13:32:56;30.40;99.90
4451;DHT22;2238;50.180;9.230;2022-07-29T13:35:57;30.50;99.90
4451;DHT22;2238;50.180;9.230;2022-07-29T13:38:57;30.10;99.90
4451;DHT22;2238;50.180;9.230;2022-07-29T13:41:58;29.80;99.90
4451;DHT22;2238;50.180;9.230;2022-07-29T13:44:59;30.00;99.90
4451;DHT22;2238;50.180;9.230;2022-07-29T13:48:00;29.90;99.90
4451;DHT22;2238;50.180;9.230;2022-07-29T13:51:00;30.00;99.90
4451;DHT22;2238;50.180;9.230;2022-07-29T13:54:01;29.90;99.90
4451;DHT22;2238;50.180;9.230;2022-07-29T13:57:02;29.20;99.90
4451;DHT22;2238;50.180;9.230;2022-07-29T14:00:03;29.80;99.90
4451;DHT22;2238;50.180;9.230;2022-07-29T14:03:03;29.80;99.90
4451;DHT22;2238;50.180;9.230;2022-07-29T14:06:04;29.90;99.90
4451;DHT22;2238;50.180;9.230;2022-07-29T14:09:05;29.60;99.90
4451;DHT22;2238;50.180;9.230;2022-07-29T14:12:14;29.50;99.90
4451;DHT22;2238;50.180;9.230;2022-07-29T14:15:14;29.70;99.90
4451;DHT22;2238;50.180;9.230;2022-07-29T14:18:15;27.40;99.90
4451;DHT22;2238;50.180;9.230;2022-07-29T14:21:16;29.80;99.90
4451;DHT22;2238;50.180;9.230;2022-07-29T14:24:16;29.70;99.90
4451;DHT22;2238;50.180;9.230;2022-07-29T14:27:17;29.40;99.90
4451;DHT22;2238;50.180;9.230;2022-07-29T14:30:18;29.10;99.90
4451;DHT22;2238;50.180;9.230;2022-07-29T14:33:19;29.10;99.90
4451;DHT22;2238;50.180;9.230;2022-07-29T14:36:20;29.10;99.90
4451;DHT22;2238;50.180;9.230;2022-07-29T14:39:22;28.90;99.90
4451;DHT22;2238;50.180;9.230;2022-07-29T14:42:23;28.90;99.90
4451;DHT22;2238;50.180;9.230;2022-07-29T14:45:23;29.20;99.90
4451;DHT22;2238;50.180;9.230;2022-07-29T14:48:24;29.30;99.90
4451;DHT22;2238;50.180;9.230;2022-07-29T14:51:25;29.30;99.90
4451;DHT22;2238;50.180;9.230;2022-07-29T14:54:25;29.30;99.90
4451;DHT22;2238;50.180;9.230;2022-07-29T14:57:26;29.40;99.90
4451;DHT22;2238;50.180;9.230;2022-07-29T15:00:27;29.50;99.90
4451;DHT22;2238;50.180;9.230;2022-07-29T15:03:27;29.30;99.90
4451;DHT22;2238;50.180;9.230;2022-07-29T15:06:28;29.10;99.90
4451;DHT22;2238;50.180;9.230;2022-07-29T15:09:29;28.70;99.90
4451;DHT22;2238;50.180;9.230;2022-07-29T15:12:30;28.30;99.90
4451;DHT22;2238;50.180;9.230;2022-07-29T15:15:31;28.00;99.90
4451;DHT22;2238;50.180;9.230;2022-07-29T15:18:31;25.30;99.90
4451;DHT22;2238;50.180;9.230;2022-07-29T15:24:33;23.90;99.90
4451;DHT22;2238;50.180;9.230;2022-07-29T15:27:33;23.80;99.90
4451;DHT22;2238;50.180;9.230;2022-07-29T15:30:35;23.70;99.90
4451;DHT22;2238;50.180;9.230;2022-07-29T15:33:40;24.00;99.90
4451;DHT22;2238;50.180;9.230;2022-07-29T15:36:41;22.80;99.90
4451;DHT22;2238;50.180;9.230;2022-07-29T15:39:41;22.20;99.90
4451;DHT22;2238;50.180;9.230;2022-07-29T15:49:04;22.00;99.90
4451;DHT22;2238;50.180;9.230;2022-07-29T15:52:07;22.30;99.90
4451;DHT22;2238;50.180;9.230;2022-07-29T15:55:08;22.50;99.90
4451;DHT22;2238;50.180;9.230;2022-07-29T15:58:09;21.90;99.90
4451;DHT22;2238;50.180;9.230;2022-07-29T16:01:10;21.40;99.90
4451;DHT22;2238;50.180;9.230;2022-07-29T16:04:10;21.20;99.90
4451;DHT22;2238;50.180;9.230;2022-07-29T16:13:13;19.40;99.90
4451;DHT22;2238;50.180;9.230;2022-07-29T16:22:17;19.20;99.90
4451;DHT22;2238;50.180;9.230;2022-07-29T16:25:17;19.20;99.90
4451;DHT22;2238;50.180;9.230;2022-07-29T16:28:18;20.00;99.90
4451;DHT22;2238;50.180;9.230;2022-07-29T16:31:19;19.30;99.90
4451;DHT22;2238;50.180;9.230;2022-07-29T16:37:23;19.30;99.90
4451;DHT22;2238;50.180;9.230;2022-07-29T16:43:24;19.50;99.90
4451;DHT22;2238;50.180;9.230;2022-07-29T16:49:27;20.00;99.90
4451;DHT22;2238;50.180;9.230;2022-07-29T16:52:27;19.70;99.90
4451;DHT22;2238;50.180;9.230;2022-07-29T16:55:28;19.70;99.90
4451;DHT22;2238;50.180;9.230;2022-07-29T16:58:28;19.90;99.90
4451;DHT22;2238;50.180;9.230;2022-07-29T17:01:29;19.90;99.90
4451;DHT22;2238;50.180;9.230;2022-07-29T17:04:30;20.20;99.90
4451;DHT22;2238;50.180;9.230;2022-07-29T17:07:30;20.20;99.90
4451;DHT22;2238;50.180;9.230;2022-07-29T17:10:31;20.40;99.90
4451;DHT22;2238;50.180;9.230;2022-07-29T17:13:32;20.40;99.90
4451;DHT22;2238;50.180;9.230;2022-07-29T17:16:33;20.70;99.90
4451;DHT22;2238;50.180;9.230;2022-07-29T17:19:34;20.80;99.90
4451;DHT22;2238;50.180;9.230;2022-07-29T17:22:35;20.90;99.90
4451;DHT22;2238;50.180;9.230;2022-07-29T17:25:36;20.90;99.90
4451;DHT22;2238;50.180;9.230;2022-07-29T17:28:37;21.00;99.90
4451;DHT22;2238;50.180;9.230;2022-07-29T17:31:38;20.10;99.90
4451;DHT22;2238;50.180;9.230;2022-07-29T17:34:39;19.80;99.90
4451;DHT22;2238;50.180;9.230;2022-07-29T17:37:40;19.80;99.90
4451;DHT22;2238;50.180;9.230;2022-07-29T17:43:42;19.40;99.90
4451;DHT22;2238;50.180;9.230;2022-07-29T17:46:43;19.80;99.90
4451;DHT22;2238;50.180;9.230;2022-07-29T17:49:44;19.60;99.90
4451;DHT22;2238;50.180;9.230;2022-07-29T17:52:44;19.60;99.90
4451;DHT22;2238;50.180;9.230;2022-07-29T17:55:46;19.90;99.90
4451;DHT22;2238;50.180;9.230;2022-07-29T17:58:47;19.90;99.90
4451;DHT22;2238;50.180;9.230;2022-07-29T18:01:48;19.90;99.90
4451;DHT22;2238;50.180;9.230;2022-07-29T18:04:49;20.20;99.90
4451;DHT22;2238;50.180;9.230;2022-07-29T18:07:50;20.20;99.90
4451;DHT22;2238;50.180;9.230;2022-07-29T18:10:50;22.80;99.90
4451;DHT22;2238;50.180;9.230;2022-07-29T18:13:51;20.60;99.90
4451;DHT22;2238;50.180;9.230;2022-07-29T18:16:52;20.90;99.90
4451;DHT22;2238;50.180;9.230;2022-07-29T18:19:52;23.80;99.90
4451;DHT22;2238;50.180;9.230;2022-07-29T18:22:53;20.60;99.90
4451;DHT22;2238;50.180;9.230;2022-07-29T18:25:53;20.50;99.90
4451;DHT22;2238;50.180;9.230;2022-07-29T18:28:54;23.40;99.90
4451;DHT22;2238;50.180;9.230;2022-07-29T18:31:55;20.60;99.90
4451;DHT22;2238;50.180;9.230;2022-07-29T18:34:55;20.80;99.90
4451;DHT22;2238;50.180;9.230;2022-07-29T18:37:56;20.60;99.90
4451;DHT22;2238;50.180;9.230;2022-07-29T18:40:56;20.00;99.90
4451;DHT22;2238;50.180;9.230;2022-07-29T18:43:57;22.00;99.90
4451;DHT22;2238;50.180;9.230;2022-07-29T18:46:58;19.40;99.90
4451;DHT22;2238;50.180;9.230;2022-07-29T18:49:59;19.30;99.90
4451;DHT22;2238;50.180;9.230;2022-07-29T18:52:59;19.60;99.90
4451;DHT22;2238;50.180;9.230;2022-07-29T18:56:02;20.10;99.90
4451;DHT22;2238;50.180;9.230;2022-07-29T18:59:03;20.10;99.90
4451;DHT22;2238;50.180;9.230;2022-07-29T19:02:04;20.60;99.90
4451;DHT22;2238;50.180;9.230;2022-07-29T19:05:05;20.70;99.90
4451;DHT22;2238;50.180;9.230;2022-07-29T19:08:06;20.60;99.90
4451;DHT22;2238;50.180;9.230;2022-07-29T19:11:07;20.50;99.90
4451;DHT22;2238;50.180;9.230;2022-07-29T19:14:07;22.40;99.90
4451;DHT22;2238;50.180;9.230;2022-07-29T19:17:08;20.00;99.90
4451;DHT22;2238;50.180;9.230;2022-07-29T19:20:09;19.60;99.90
4451;DHT22;2238;50.180;9.230;2022-07-29T19:23:10;19.30;99.90
4451;DHT22;2238;50.180;9.230;2022-07-29T19:26:10;19.60;99.90
4451;DHT22;2238;50.180;9.230;2022-07-29T19:29:12;19.40;99.90
4451;DHT22;2238;50.180;9.230;2022-07-29T19:32:13;19.10;99.90
4451;DHT22;2238;50.180;9.230;2022-07-29T19:38:23;19.00;99.90
4451;DHT22;2238;50.180;9.230;2022-07-29T19:41:24;18.80;99.90
4451;DHT22;2238;50.180;9.230;2022-07-29T19:44:25;18.80;99.90
4451;DHT22;2238;50.180;9.230;2022-07-29T19:47:25;18.70;99.90
4451;DHT22;2238;50.180;9.230;2022-07-29T19:50:26;18.70;99.90
4451;DHT22;2238;50.180;9.230;2022-07-29T19:56:27;18.70;99.90
4451;DHT22;2238;50.180;9.230;2022-07-29T20:05:32;18.40;99.90
4451;DHT22;2238;50.180;9.230;2022-07-29T20:08:32;18.50;99.90
4451;DHT22;2238;50.180;9.230;2022-07-29T20:11:33;18.50;99.90
4451;DHT22;2238;50.180;9.230;2022-07-29T20:14:36;18.50;99.90
4451;DHT22;2238;50.180;9.230;2022-07-29T20:17:36;18.90;99.90
4451;DHT22;2238;50.180;9.230;2022-07-29T20:20:37;18.80;99.90
4451;DHT22;2238;50.180;9.230;2022-07-29T20:23:37;18.60;99.90
4451;DHT22;2238;50.180;9.230;2022-07-29T20:26:38;18.80;99.90
4451;DHT22;2238;50.180;9.230;2022-07-29T20:29:39;18.50;99.90
4451;DHT22;2238;50.180;9.230;2022-07-29T20:32:40;18.40;99.90
4451;DHT22;2238;50.180;9.230;2022-07-29T20:35:41;18.30;99.90
4451;DHT22;2238;50.180;9.230;2022-07-29T20:38:42;18.50;99.90
4451;DHT22;2238;50.180;9.230;2022-07-29T20:41:43;18.40;99.90
4451;DHT22;2238;50.180;9.230;2022-07-29T20:44:44;18.70;99.90
4451;DHT22;2238;50.180;9.230;2022-07-29T20:50:46;18.30;99.90
4451;DHT22;2238;50.180;9.230;2022-07-29T20:53:48;18.60;99.90
4451;DHT22;2238;50.180;9.230;2022-07-29T20:56:48;18.30;99.90
4451;DHT22;2238;50.180;9.230;2022-07-29T20:59:49;18.10;99.90
4451;DHT22;2238;50.180;9.230;2022-07-29T21:02:49;18.10;99.90
4451;DHT22;2238;50.180;9.230;2022-07-29T21:05:51;18.10;99.90
4451;DHT22;2238;50.180;9.230;2022-07-29T21:14:56;18.30;99.90
4451;DHT22;2238;50.180;9.230;2022-07-29T21:17:57;18.40;99.90
4451;DHT22;2238;50.180;9.230;2022-07-29T21:21:04;18.60;99.90
4451;DHT22;2238;50.180;9.230;2022-07-29T21:24:06;18.40;99.90
4451;DHT22;2238;50.180;9.230;2022-07-29T21:27:07;18.30;99.90
4451;DHT22;2238;50.180;9.230;2022-07-29T21:30:26;18.30;99.90
4451;DHT22;2238;50.180;9.230;2022-07-29T21:33:28;18.30;99.90
4451;DHT22;2238;50.180;9.230;2022-07-29T21:36:29;18.50;99.90
4451;DHT22;2238;50.180;9.230;2022-07-29T21:39:29;18.50;99.90
4451;DHT22;2238;50.180;9.230;2022-07-29T21:42:30;18.50;99.90
4451;DHT22;2238;50.180;9.230;2022-07-29T21:45:31;18.20;99.90
4451;DHT22;2238;50.180;9.230;2022-07-29T21:48:31;18.20;99.90
4451;DHT22;2238;50.180;9.230;2022-07-29T21:51:32;18.50;99.90
4451;DHT22;2238;50.180;9.230;2022-07-29T21:54:32;18.10;99.90
4451;DHT22;2238;50.180;9.230;2022-07-29T21:57:33;17.70;99.90
4451;DHT22;2238;50.180;9.230;2022-07-29T22:00:34;17.60;99.90
4451;DHT22;2238;50.180;9.230;2022-07-29T22:06:35;17.70;99.90
4451;DHT22;2238;50.180;9.230;2022-07-29T22:09:36;17.80;99.90
4451;DHT22;2238;50.180;9.230;2022-07-29T22:12:36;17.70;99.90
4451;DHT22;2238;50.180;9.230;2022-07-29T22:15:37;18.00;99.90
4451;DHT22;2238;50.180;9.230;2022-07-29T22:18:37;18.40;99.90
4451;DHT22;2238;50.180;9.230;2022-07-29T22:21:38;18.00;99.90
4451;DHT22;2238;50.180;9.230;2022-07-29T22:24:39;17.80;99.90
4451;DHT22;2238;50.180;9.230;2022-07-29T22:27:40;18.20;99.90
4451;DHT22;2238;50.180;9.230;2022-07-29T22:30:40;18.00;99.90
4451;DHT22;2238;50.180;9.230;2022-07-29T22:33:41;17.80;99.90
4451;DHT22;2238;50.180;9.230;2022-07-29T22:36:41;17.90;99.90
4451;DHT22;2238;50.180;9.230;2022-07-29T22:39:42;17.40;99.90
4451;DHT22;2238;50.180;9.230;2022-07-29T22:42:43;17.30;99.90
4451;DHT22;2238;50.180;9.230;2022-07-29T22:45:43;19.00;99.90
4451;DHT22;2238;50.180;9.230;2022-07-29T22:48:44;17.90;99.90
4451;DHT22;2238;50.180;9.230;2022-07-29T22:51:45;18.30;99.90
4451;DHT22;2238;50.180;9.230;2022-07-29T22:54:45;17.30;99.90
4451;DHT22;2238;50.180;9.230;2022-07-29T22:57:46;16.90;99.90
4451;DHT22;2238;50.180;9.230;2022-07-29T23:00:47;16.90;99.90
4451;DHT22;2238;50.180;9.230;2022-07-29T23:03:48;16.80;99.90
4451;DHT22;2238;50.180;9.230;2022-07-29T23:06:49;16.70;99.90
4451;DHT22;2238;50.180;9.230;2022-07-29T23:09:50;16.80;99.90
4451;DHT22;2238;50.180;9.230;2022-07-29T23:12:51;16.80;99.90
4451;DHT22;2238;50.180;9.230;2022-07-29T23:15:51;17.30;99.90
4451;DHT22;2238;50.180;9.230;2022-07-29T23:18:52;17.00;99.90
4451;DHT22;2238;50.180;9.230;2022-07-29T23:21:53;17.00;99.90
4451;DHT22;2238;50.180;9.230;2022-07-29T23:24:53;17.20;99.90
4451;DHT22;2238;50.180;9.230;2022-07-29T23:27:54;17.40;99.90
4451;DHT22;2238;50.180;9.230;2022-07-29T23:30:55;17.40;99.90
4451;DHT22;2238;50.180;9.230;2022-07-29T23:33:55;17.60;99.90
4451;DHT22;2238;50.180;9.230;2022-07-29T23:36:56;17.40;99.90
4451;DHT22;2238;50.180;9.230;2022-07-29T23:39:56;20.20;99.90
4451;DHT22;2238;50.180;9.230;2022-07-29T23:42:57;17.20;99.90
4451;DHT22;2238;50.180;9.230;2022-07-29T23:45:58;17.90;99.90
4451;DHT22;2238;50.180;9.230;2022-07-29T23:48:58;17.20;99.90
4451;DHT22;2238;50.180;9.230;2022-07-29T23:51:59;17.10;99.90
4451;DHT22;2238;50.180;9.230;2022-07-29T23:54:59;17.20;99.90
4451;DHT22;2238;50.180;9.230;2022-07-29T23:58:00;17.30;99.90
